Time;durP1;ratioP1;P1;durP2;ratioP2;P2;SDS_P1;SDS_P2;PMS_P1;PMS_P2;Temp;Humidity;BMP_temperature;BMP_pressure;BME280_temperature;BME280_humidity;BME280_pressure;Samples;Min_cycle;Max_cycle;Signal;HPM_P1;HPM_P2
2022/09/29 05:01:11;;;;;;;;;;;;;;;14.41;80.61;95261.09;4231138;27;10295;-71
2022/09/29 05:03:14;;;;;;;;;;;;;;;14.72;79.86;95266.63;4231095;28;6321;-70
2022/09/29 05:05:18;;;;;;;;;;;;;;;14.94;79.47;95259.31;4231230;28;5792;-69
2022/09/29 05:07:20;;;;;;;;;;;;;;;15.11;78.78;95262.63;4231509;28;5709;-70
2022/09/29 05:09:23;;;;;;;;;;;;;;;15.27;78.50;95268.81;4231405;28;6517;-71
2022/09/29 05:11:27;;;;;;;;;;;;;;;15.34;78.15;95277.38;4231234;28;5612;-71
2022/09/29 05:13:30;;;;;;;;;;;;;;;15.40;77.84;95271.03;4231513;28;5729;-71
2022/09/29 05:15:33;;;;;;;;;;;;;;;15.49;77.90;95265.19;4227169;28;5654;-71
2022/09/29 05:17:37;;;;;;;;;;;;;;;15.55;77.55;95270.28;4220037;28;5620;-71
2022/09/29 05:19:39;;;;;;;;;;;;;;;15.61;77.33;95265.78;4221028;28;5800;-71
2022/09/29 05:21:42;;;;;;;;;;;;;;;15.61;77.14;95263.91;4229740;27;5756;-70
2022/09/29 05:23:45;;;;;;;;;;;;;;;15.62;77.20;95270.84;4223905;28;5605;-71
2022/09/29 05:25:48;;;;;;;;;;;;;;;15.66;77.07;95284.47;4236227;27;5686;-71
2022/09/29 05:27:51;;;;;;;;;;;;;;;15.70;76.81;95286.34;4219431;28;5715;-71
2022/09/29 05:29:54;;;;;;;;;;;;;;;15.74;76.88;95291.94;4230803;27;6086;-71
2022/09/29 05:31:56;;;;;;;;;;;;;;;15.76;76.71;95279.16;4219921;27;6307;-71
2022/09/29 05:34:01;;;;;;;;;;;;;;;15.80;76.68;95290.91;4224647;28;5608;-72
2022/09/29 05:36:06;;;;;;;;;;;;;;;15.85;76.56;95290.09;4216865;28;5691;-71
2022/09/29 05:38:08;;;;;;;;;;;;;;;15.86;76.32;95289.84;4230924;28;6325;-71
2022/09/29 05:40:11;;;;;;;;;;;;;;;15.89;76.30;95299.19;4230873;28;5621;-71
2022/09/29 05:42:14;;;;;;;;;;;;;;;15.90;75.87;95293.59;4230657;28;5576;-71
2022/09/29 05:44:17;;;;;;;;;;;;;;;15.93;76.05;95292.25;4230455;28;5612;-71
2022/09/29 05:46:21;;;;;;;;;;;;;;;15.93;75.96;95284.25;4230614;28;5717;-70
2022/09/29 05:48:24;;;;;;;;;;;;;;;15.92;75.72;95296.78;4224270;28;5753;-71
2022/09/29 05:50:28;;;;;;;;;;;;;;;15.90;75.75;95301.59;4217049;28;5630;-70
2022/09/29 05:52:31;;;;;;;;;;;;;;;15.90;75.73;95301.59;4223278;28;5766;-72
2022/09/29 05:54:34;;;;;;;;;;;;;;;15.91;75.71;95303.19;4222346;28;5633;-72
2022/09/29 05:56:37;;;;;;;;;;;;;;;15.91;75.45;95303.19;4223137;28;6363;-72
2022/09/29 05:58:46;;;;;;;;;;;;;;;15.93;75.35;95294.94;4219808;28;5917;-71
2022/09/29 06:00:48;;;;;;;;;;;;;;;15.91;75.21;95303.19;4213480;28;5758;-74
2022/09/29 06:02:52;;;;;;;;;;;;;;;15.90;75.12;95300.78;4213055;28;5636;-74
2022/09/29 06:04:55;;;;;;;;;;;;;;;15.90;75.20;95306.13;4216299;28;5138;-75
2022/09/29 06:06:59;;;;;;;;;;;;;;;15.89;75.10;95301.84;4219314;28;5605;-74
2022/09/29 06:09:02;;;;;;;;;;;;;;;15.90;74.92;95311.44;4219410;28;5609;-74
2022/09/29 06:11:06;;;;;;;;;;;;;;;15.89;74.91;95307.97;4218905;28;5813;-75
2022/09/29 06:13:09;;;;;;;;;;;;;;;15.90;74.77;95308.78;4219254;28;5764;-74
2022/09/29 06:15:12;;;;;;;;;;;;;;;15.92;74.90;95314.66;4219063;28;5727;-74
2022/09/29 06:17:16;;;;;;;;;;;;;;;15.93;74.64;95308.25;4218900;28;6414;-75
2022/09/29 06:19:18;;;;;;;;;;;;;;;15.94;74.45;95313.31;4218995;28;5617;-75
2022/09/29 06:21:23;;;;;;;;;;;;;;;15.94;74.35;95307.19;4218791;28;5719;-74
2022/09/29 06:23:28;;;;;;;;;;;;;;;15.93;74.35;95313.56;4219266;28;5733;-74
2022/09/29 06:25:31;;;;;;;;;;;;;;;15.92;74.39;95315.44;4200681;28;5627;-75
2022/09/29 06:27:34;;;;;;;;;;;;;;;15.93;74.39;95318.91;4219015;28;6045;-74
2022/09/29 06:29:37;;;;;;;;;;;;;;;15.91;74.47;95323.72;4219066;28;5875;-74
2022/09/29 06:31:40;;;;;;;;;;;;;;;15.90;74.37;95322.91;4218899;28;5774;-74
2022/09/29 06:33:43;;;;;;;;;;;;;;;15.93;74.31;95318.91;4218583;28;5609;-74
2022/09/29 06:38:07;;;;;;;;;;;;;;;15.94;74.04;95323.97;4218170;28;5620;-74
2022/09/29 06:40:12;;;;;;;;;;;;;;;15.95;74.14;95328.25;4218979;28;6472;-75
2022/09/29 06:42:15;;;;;;;;;;;;;;;15.94;74.04;95323.97;4218820;28;5625;-75
2022/09/29 06:44:19;;;;;;;;;;;;;;;15.96;74.15;95327.16;4218494;28;5164;-75
2022/09/29 06:46:22;;;;;;;;;;;;;;;15.98;73.88;95325.06;4219065;28;5886;-75
2022/09/29 06:48:25;;;;;;;;;;;;;;;15.98;73.88;95326.94;4218665;28;5792;-75
2022/09/29 06:50:28;;;;;;;;;;;;;;;15.99;73.67;95323.22;4218223;28;5828;-74
2022/09/29 06:52:31;;;;;;;;;;;;;;;16.00;73.74;95330.13;4218636;28;5753;-75
2022/09/29 06:54:34;;;;;;;;;;;;;;;16.01;73.61;95334.41;4218625;28;5709;-75
2022/09/29 06:56:38;;;;;;;;;;;;;;;16.00;73.60;95328.28;4218455;28;5720;-74
2022/09/29 06:58:41;;;;;;;;;;;;;;;16.01;73.41;95345.06;4218666;28;5657;-75
2022/09/29 07:00:44;;;;;;;;;;;;;;;16.01;73.51;95339.72;4212350;28;5651;-74
2022/09/29 07:02:51;;;;;;;;;;;;;;;15.96;73.51;95342.38;4210021;28;5718;-75
2022/09/29 07:04:54;;;;;;;;;;;;;;;15.95;73.36;95346.09;4210057;28;5645;-74
2022/09/29 07:06:57;;;;;;;;;;;;;;;15.94;73.34;95344.50;4217634;28;5640;-75
2022/09/29 07:09:00;;;;;;;;;;;;;;;15.91;73.46;95347.69;4218419;28;5746;-75
2022/09/29 07:11:03;;;;;;;;;;;;;;;15.94;73.37;95350.63;4218118;28;5644;-75
2022/09/29 07:13:08;;;;;;;;;;;;;;;15.94;73.20;95352.50;4216614;28;5719;-75
2022/09/29 07:15:11;;;;;;;;;;;;;;;15.96;73.15;95359.16;4201743;28;5616;-75
2022/09/29 07:17:14;;;;;;;;;;;;;;;15.98;73.10;95364.25;4203026;28;5639;-74
2022/09/29 07:19:18;;;;;;;;;;;;;;;15.97;72.99;95371.44;4207325;28;5631;-75
2022/09/29 07:21:21;;;;;;;;;;;;;;;15.98;72.86;95369.59;4212070;28;5720;-75
2022/09/29 07:23:25;;;;;;;;;;;;;;;15.98;72.75;95373.03;4214656;28;5624;-75
2022/09/29 07:25:28;;;;;;;;;;;;;;;15.99;72.67;95371.19;4204749;28;5747;-75
2022/09/29 07:27:51;;;;;;;;;;;;;;;15.99;72.64;95379.97;4218157;28;5809;-75
2022/09/29 07:29:56;;;;;;;;;;;;;;;15.99;72.66;95385.31;4217882;28;5644;-75
2022/09/29 07:32:06;;;;;;;;;;;;;;;16.00;72.47;95386.09;4184452;28;5761;-75
2022/09/29 07:34:18;;;;;;;;;;;;;;;16.02;72.34;95389.31;4205477;28;5617;-75
2022/09/29 07:36:21;;;;;;;;;;;;;;;16.02;72.22;95384.78;4209030;28;8432;-75
2022/09/29 07:38:24;;;;;;;;;;;;;;;16.00;72.20;95388.78;4206301;28;5700;-75
2022/09/29 07:40:28;;;;;;;;;;;;;;;15.97;72.11;95386.63;4201054;28;5635;-75
2022/09/29 07:42:30;;;;;;;;;;;;;;;15.97;72.07;95394.63;4201238;28;5846;-75
2022/09/29 07:44:35;;;;;;;;;;;;;;;15.96;71.98;95396.47;4205659;28;5743;-75
2022/09/29 07:46:39;;;;;;;;;;;;;;;15.97;71.97;95397.31;4204496;28;5652;-75
2022/09/29 07:48:43;;;;;;;;;;;;;;;15.93;71.84;95401.53;4201201;28;5631;-75
2022/09/29 07:50:46;;;;;;;;;;;;;;;15.89;71.75;95405.78;4200398;28;5999;-75
2022/09/29 07:52:51;;;;;;;;;;;;;;;15.88;71.55;95414.84;4216448;28;5719;-75
2022/09/29 07:54:54;;;;;;;;;;;;;;;15.89;71.46;95408.44;4210381;28;5827;-75
2022/09/29 07:56:59;;;;;;;;;;;;;;;15.90;71.32;95418.84;4216711;28;7704;-75
2022/09/29 07:59:03;;;;;;;;;;;;;;;15.88;71.12;95423.63;4184160;28;5642;-75
2022/09/29 08:01:09;;;;;;;;;;;;;;;15.86;71.07;95425.78;4209404;28;5624;-75
2022/09/29 08:03:14;;;;;;;;;;;;;;;15.86;71.09;95427.63;4217444;28;6010;-75
2022/09/29 08:05:18;;;;;;;;;;;;;;;15.89;70.77;95432.44;4217601;28;5720;-75
2022/09/29 08:07:21;;;;;;;;;;;;;;;15.91;70.45;95431.09;4217193;28;5827;-75
2022/09/29 08:09:25;;;;;;;;;;;;;;;15.93;70.31;95438.84;4216293;28;5721;-75
2022/09/29 08:11:43;;;;;;;;;;;;;;;15.93;70.11;95436.97;4217855;28;5785;-75
2022/09/29 08:13:47;;;;;;;;;;;;;;;15.85;70.41;95442.78;4217738;28;5749;-75
2022/09/29 08:15:57;;;;;;;;;;;;;;;15.86;70.25;95440.97;4217617;28;5800;-75
2022/09/29 08:18:02;;;;;;;;;;;;;;;15.85;70.13;95440.13;4216609;28;7819;-75
2022/09/29 08:20:07;;;;;;;;;;;;;;;15.88;70.15;95444.16;4217064;28;5721;-75
2022/09/29 08:22:10;;;;;;;;;;;;;;;15.93;69.91;95444.16;4216992;28;6563;-75
2022/09/29 08:24:13;;;;;;;;;;;;;;;15.97;69.92;95445.28;4216915;28;5722;-75
2022/09/29 08:26:17;;;;;;;;;;;;;;;16.00;69.41;95450.88;4216875;28;5755;-75
2022/09/29 08:28:25;;;;;;;;;;;;;;;16.02;69.48;95443.41;4217043;28;5797;-75
2022/09/29 08:30:33;;;;;;;;;;;;;;;16.01;69.38;95443.69;4217425;28;5713;-75
2022/09/29 08:32:37;;;;;;;;;;;;;;;16.04;69.26;95445.03;4216949;28;5616;-75
2022/09/29 08:34:40;;;;;;;;;;;;;;;16.06;69.16;95434.91;4217073;28;5644;-75
2022/09/29 08:36:44;;;;;;;;;;;;;;;16.08;69.16;95441.56;4216718;28;5697;-75
2022/09/29 08:38:49;;;;;;;;;;;;;;;16.11;68.92;95443.72;4216882;28;5721;-75
2022/09/29 08:40:55;;;;;;;;;;;;;;;16.15;68.68;95450.13;4216886;28;5688;-75
2022/09/29 08:43:05;;;;;;;;;;;;;;;16.17;68.65;95440.00;4216543;28;5860;-75
2022/09/29 08:45:13;;;;;;;;;;;;;;;16.17;68.53;95445.34;4216922;28;5632;-75
2022/09/29 08:47:22;;;;;;;;;;;;;;;16.18;68.36;95446.94;4216896;28;5641;-75
2022/09/29 08:49:36;;;;;;;;;;;;;;;16.19;68.53;95453.88;4216757;28;5741;-75
2022/09/29 08:51:45;;;;;;;;;;;;;;;16.22;68.21;95450.72;4216800;28;6502;-75
2022/09/29 08:53:56;;;;;;;;;;;;;;;16.26;68.12;95446.44;4216896;28;5725;-75
2022/09/29 08:56:09;;;;;;;;;;;;;;;16.30;67.92;95447.50;4208969;28;5612;-75
2022/09/29 08:58:14;;;;;;;;;;;;;;;16.33;68.04;95448.09;4217111;28;5628;-75
2022/09/29 09:00:19;;;;;;;;;;;;;;;16.33;67.61;95459.56;4216392;28;5620;-75
2022/09/29 09:02:54;;;;;;;;;;;;;;;16.34;67.50;95460.34;4216987;28;5703;-75
2022/09/29 09:05:23;;;;;;;;;;;;;;;16.32;67.45;95457.94;4204282;28;5672;-75
2022/09/29 09:07:34;;;;;;;;;;;;;;;16.33;67.48;95458.75;4214221;28;5632;-75
2022/09/29 09:09:58;;;;;;;;;;;;;;;16.32;67.42;95460.63;4216563;28;5762;-75
2022/09/29 09:12:31;;;;;;;;;;;;;;;16.35;67.26;95459.28;4216551;28;5625;-75
2022/09/29 09:14:57;;;;;;;;;;;;;;;16.36;67.17;95458.22;4214669;28;5620;-75
2022/09/29 09:17:10;;;;;;;;;;;;;;;16.37;67.02;95455.28;4179071;28;5627;-74
2022/09/29 09:19:40;;;;;;;;;;;;;;;16.35;66.86;95451.28;4199786;28;5643;-75
2022/09/29 09:21:43;;;;;;;;;;;;;;;16.36;66.89;95458.22;4211126;28;5653;-75
2022/09/29 09:23:54;;;;;;;;;;;;;;;16.33;66.91;95454.22;4216717;28;5812;-75
2022/09/29 09:26:04;;;;;;;;;;;;;;;16.33;66.70;95453.41;4216751;28;5744;-73
2022/09/29 09:28:18;;;;;;;;;;;;;;;16.28;66.56;95457.66;4216501;28;5621;-73
2022/09/29 09:30:31;;;;;;;;;;;;;;;16.31;66.44;95448.34;4216584;28;5713;-74
2022/09/29 09:32:42;;;;;;;;;;;;;;;16.34;66.36;95449.69;4216685;28;5729;-74
2022/09/29 09:34:49;;;;;;;;;;;;;;;16.33;66.29;95458.75;4216436;28;5707;-74
2022/09/29 09:37:05;;;;;;;;;;;;;;;16.34;66.28;95449.69;4218517;28;7500;-74
2022/09/29 09:39:14;;;;;;;;;;;;;;;16.38;66.15;95459.56;4219430;28;5797;-74
2022/09/29 09:41:22;;;;;;;;;;;;;;;16.42;66.06;95462.50;4219515;28;5624;-74
2022/09/29 09:43:32;;;;;;;;;;;;;;;16.44;65.99;95457.72;4219563;28;5633;-74
2022/09/29 09:45:37;;;;;;;;;;;;;;;16.47;65.80;95455.31;4219717;28;6403;-74
2022/09/29 09:47:46;;;;;;;;;;;;;;;16.51;65.71;95463.59;4219358;28;5609;-74
2022/09/29 09:49:53;;;;;;;;;;;;;;;16.53;65.72;95458.78;4219058;28;5753;-74
2022/09/29 09:52:03;;;;;;;;;;;;;;;16.55;65.60;95459.34;4219297;28;5729;-74
2022/09/29 09:54:14;;;;;;;;;;;;;;;16.57;65.76;95465.22;4219643;28;5616;-75
2022/09/29 09:56:33;;;;;;;;;;;;;;;16.60;65.39;95464.69;4219329;28;5995;-75
2022/09/29 09:59:13;;;;;;;;;;;;;;;16.64;65.42;95460.41;4219454;28;5613;-75
2022/09/29 10:01:16;;;;;;;;;;;;;;;16.68;65.24;95461.53;4151111;28;5799;-74
2022/09/29 10:03:19;;;;;;;;;;;;;;;16.70;65.10;95467.41;4151095;28;5766;-75
2022/09/29 10:05:29;;;;;;;;;;;;;;;16.71;65.37;95460.22;4151166;28;5711;-75
2022/09/29 10:07:32;;;;;;;;;;;;;;;16.73;65.11;95466.88;4151105;28;5711;-74
2022/09/29 10:09:35;;;;;;;;;;;;;;;16.74;65.15;95462.34;4150971;28;5767;-75
2022/09/29 10:11:41;;;;;;;;;;;;;;;16.77;65.08;95467.19;4150808;28;5855;-75
2022/09/29 10:13:46;;;;;;;;;;;;;;;16.77;65.11;95465.31;4150858;28;5819;-75
2022/09/29 10:15:55;;;;;;;;;;;;;;;16.78;64.96;95476.78;4150997;28;5744;-75
2022/09/29 10:18:05;;;;;;;;;;;;;;;16.81;65.10;95471.72;4150820;28;5763;-75
2022/09/29 10:20:09;;;;;;;;;;;;;;;16.82;64.88;95467.97;4150488;28;5725;-75
2022/09/29 10:22:13;;;;;;;;;;;;;;;16.81;64.89;95463.69;4134309;28;5807;-74
2022/09/29 10:24:26;;;;;;;;;;;;;;;16.85;64.71;95462.09;4150872;28;5725;-74
2022/09/29 10:26:36;;;;;;;;;;;;;;;16.90;64.69;95463.19;4134437;28;5723;-75
2022/09/29 10:28:44;;;;;;;;;;;;;;;16.92;64.52;95466.38;4150683;28;5864;-75
2022/09/29 10:30:47;;;;;;;;;;;;;;;16.94;64.50;95461.59;4150842;28;5700;-75
2022/09/29 10:32:57;;;;;;;;;;;;;;;16.96;64.54;95459.44;4186737;28;6519;-74
2022/09/29 10:35:05;;;;;;;;;;;;;;;16.99;64.59;95467.75;4202114;28;5634;-75
2022/09/29 10:37:23;;;;;;;;;;;;;;;17.01;64.39;95465.59;4211164;28;5774;-74
2022/09/29 10:39:38;;;;;;;;;;;;;;;17.03;64.38;95457.31;4219153;28;5616;-74
2022/09/29 10:41:52;;;;;;;;;;;;;;;17.05;64.29;95473.88;4218725;28;5712;-74
2022/09/29 10:43:56;;;;;;;;;;;;;;;17.06;64.02;95459.44;4218684;28;5091;-74
2022/09/29 10:45:59;;;;;;;;;;;;;;;17.05;64.01;95471.22;4218776;28;5640;-75
2022/09/29 10:48:12;;;;;;;;;;;;;;;17.06;63.78;95465.59;4218550;28;5748;-74
2022/09/29 10:50:18;;;;;;;;;;;;;;;17.07;63.94;95464.53;4217208;28;5614;-75
2022/09/29 10:52:24;;;;;;;;;;;;;;;17.06;63.60;95468.25;4218242;28;5943;-74
2022/09/29 10:54:30;;;;;;;;;;;;;;;17.04;63.53;95469.59;4218848;28;5713;-75
2022/09/29 10:56:33;;;;;;;;;;;;;;;17.04;63.47;95467.72;4218161;28;5710;-75
2022/09/29 10:58:40;;;;;;;;;;;;;;;17.05;63.57;95460.53;4218568;28;5721;-75
2022/09/29 11:01:07;;;;;;;;;;;;;;;17.04;63.36;95462.41;4218350;28;5851;-75
2022/09/29 11:03:19;;;;;;;;;;;;;;;17.05;63.01;95465.88;4218473;28;5705;-75
2022/09/29 11:05:23;;;;;;;;;;;;;;;17.02;63.30;95455.72;4218441;28;5704;-75
2022/09/29 11:07:27;;;;;;;;;;;;;;;17.04;63.30;95464.25;4218216;28;5605;-74
2022/09/29 11:09:37;;;;;;;;;;;;;;;17.04;63.10;95466.94;4218079;28;5607;-75
2022/09/29 11:11:53;;;;;;;;;;;;;;;17.06;62.98;95462.94;4218478;28;5795;-75
2022/09/29 11:14:02;;;;;;;;;;;;;;;17.09;62.88;95472.25;4218181;28;5821;-75
2022/09/29 11:16:14;;;;;;;;;;;;;;;17.09;62.86;95472.25;4218090;28;5737;-75
2022/09/29 11:18:21;;;;;;;;;;;;;;;17.09;62.94;95477.59;4200024;28;5732;-75
2022/09/29 11:20:32;;;;;;;;;;;;;;;17.11;62.83;95483.50;4217865;28;5695;-75
2022/09/29 11:23:28;;;;;;;;;;;;;;;17.09;62.86;95482.94;4217805;28;5788;-75
2022/09/29 11:26:17;;;;;;;;;;;;;;;17.09;62.64;95485.63;4149922;28;5601;-75
2022/09/29 11:28:51;;;;;;;;;;;;;;;17.09;62.62;95477.59;4148024;28;5664;-75
2022/09/29 11:31:08;;;;;;;;;;;;;;;17.10;62.58;95487.22;4149699;28;5636;-76
2022/09/29 11:33:22;;;;;;;;;;;;;;;17.09;62.44;95481.06;4149601;28;5893;-74
2022/09/29 11:35:37;;;;;;;;;;;;;;;17.10;62.40;95490.72;4149827;28;5696;-75
2022/09/29 11:37:56;;;;;;;;;;;;;;;17.10;62.23;95490.72;4149420;28;5873;-75
2022/09/29 11:40:10;;;;;;;;;;;;;;;17.12;62.07;95493.13;4149654;28;5876;-75
2022/09/29 11:42:33;;;;;;;;;;;;;;;17.10;62.09;95489.88;4133442;28;5626;-75
2022/09/29 11:44:54;;;;;;;;;;;;;;;17.10;62.36;95493.38;4146056;28;5790;-75
2022/09/29 11:47:07;;;;;;;;;;;;;;;17.08;61.92;95486.69;4149593;28;5801;-75
2022/09/29 11:49:38;;;;;;;;;;;;;;;17.05;62.07;95489.91;4149231;28;6543;-75
2022/09/29 11:51:58;;;;;;;;;;;;;;;17.06;61.99;95488.81;4149357;28;5695;-75
2022/09/29 11:54:23;;;;;;;;;;;;;;;17.05;61.90;95487.22;4149602;28;5613;-75
2022/09/29 11:56:38;;;;;;;;;;;;;;;17.01;61.92;95492.31;4172794;28;5706;-75
2022/09/29 11:58:47;;;;;;;;;;;;;;;17.03;62.05;95486.69;4217238;28;5620;-75
2022/09/29 12:01:01;;;;;;;;;;;;;;;17.04;61.88;95482.94;4217209;28;5797;-75
2022/09/29 12:03:27;;;;;;;;;;;;;;;17.05;61.88;95487.22;4217598;28;5717;-75
2022/09/29 12:05:45;;;;;;;;;;;;;;;17.03;62.01;95490.16;4214821;28;5644;-75
2022/09/29 12:08:00;;;;;;;;;;;;;;;17.01;61.81;95486.97;4217282;28;5725;-75
2022/09/29 12:10:21;;;;;;;;;;;;;;;16.98;61.93;95486.66;4217841;28;5808;-75
2022/09/29 12:12:35;;;;;;;;;;;;;;;16.94;61.81;95485.59;4217177;28;6411;-75
2022/09/29 12:14:59;;;;;;;;;;;;;;;16.86;62.14;95485.03;4217207;28;5793;-75
2022/09/29 12:17:08;;;;;;;;;;;;;;;16.88;62.02;95490.16;4200519;28;5639;-75
2022/09/29 12:19:15;;;;;;;;;;;;;;;16.88;61.95;95482.94;4200373;28;5677;-75
2022/09/29 12:21:32;;;;;;;;;;;;;;;16.86;61.98;95482.38;4200553;28;5639;-75
2022/09/29 12:23:38;;;;;;;;;;;;;;;16.85;62.09;95485.31;4204997;28;5073;-75
2022/09/29 12:25:49;;;;;;;;;;;;;;;16.84;62.08;95487.19;4217045;28;5617;-75
2022/09/29 12:27:55;;;;;;;;;;;;;;;16.83;62.02;95485.59;4217208;28;5842;-75
2022/09/29 12:30:04;;;;;;;;;;;;;;;16.83;62.06;95485.59;4217301;28;5064;-73
2022/09/29 12:32:14;;;;;;;;;;;;;;;16.83;62.16;95482.91;4217251;28;5609;-75
2022/09/29 12:34:29;;;;;;;;;;;;;;;16.81;62.04;95486.91;4217084;28;5717;-74
2022/09/29 12:36:44;;;;;;;;;;;;;;;16.80;62.00;95485.31;4216882;28;5713;-74
2022/09/29 12:38:50;;;;;;;;;;;;;;;16.80;62.06;95486.13;4217027;28;5738;-74
2022/09/29 12:41:04;;;;;;;;;;;;;;;16.79;62.04;95492.53;4217131;28;5808;-74
2022/09/29 12:43:14;;;;;;;;;;;;;;;16.77;62.03;95486.66;4216879;28;7695;-75
2022/09/29 12:45:26;;;;;;;;;;;;;;;16.78;61.99;95488.25;4217210;28;5725;-76
2022/09/29 12:47:51;;;;;;;;;;;;;;;16.78;61.88;95488.25;4216945;28;5828;-75
2022/09/29 12:50:03;;;;;;;;;;;;;;;16.78;61.91;95490.94;4216990;28;5684;-75
2022/09/29 12:52:16;;;;;;;;;;;;;;;16.76;62.04;95487.72;4216454;28;5730;-76
2022/09/29 12:54:27;;;;;;;;;;;;;;;16.75;62.05;95494.09;4216794;28;5694;-75
2022/09/29 12:56:35;;;;;;;;;;;;;;;16.74;62.09;95497.84;4217037;28;5701;-75
2022/09/29 12:58:43;;;;;;;;;;;;;;;16.73;61.98;95485.56;4216472;28;5717;-75
2022/09/29 13:00:52;;;;;;;;;;;;;;;16.73;61.97;95496.22;4216611;28;5798;-76
2022/09/29 13:03:39;;;;;;;;;;;;;;;16.72;61.91;95488.50;4216729;28;5640;-74
2022/09/29 13:06:04;;;;;;;;;;;;;;;16.69;62.04;95489.81;4211345;28;5612;-75
2022/09/29 13:08:51;;;;;;;;;;;;;;;16.69;61.99;95489.03;4207625;28;5650;-74
2022/09/29 13:11:06;;;;;;;;;;;;;;;16.69;62.09;95484.50;4183739;28;5644;-75
2022/09/29 13:13:30;;;;;;;;;;;;;;;16.68;61.81;95482.88;4205224;28;5613;-75
2022/09/29 13:15:48;;;;;;;;;;;;;;;16.67;62.00;95480.47;4220162;28;5609;-75
2022/09/29 13:18:04;;;;;;;;;;;;;;;16.70;62.13;95486.09;4220025;28;7055;-75
2022/09/29 13:20:47;;;;;;;;;;;;;;;16.71;61.98;95498.38;4211430;28;5738;-75
2022/09/29 13:23:18;;;;;;;;;;;;;;;16.70;62.08;95491.44;4220015;28;5040;-75
2022/09/29 13:25:32;;;;;;;;;;;;;;;16.68;62.08;95488.22;4219982;28;5774;-75
2022/09/29 13:27:37;;;;;;;;;;;;;;;16.69;62.10;95489.03;4207072;28;5620;-75
2022/09/29 13:29:47;;;;;;;;;;;;;;;16.71;62.13;95493.03;4216164;28;5672;-75
2022/09/29 13:31:52;;;;;;;;;;;;;;;16.74;62.13;95492.50;4211296;28;5628;-75
2022/09/29 13:33:57;;;;;;;;;;;;;;;16.76;62.10;95486.91;4219995;28;6400;-75
2022/09/29 13:36:01;;;;;;;;;;;;;;;16.76;62.00;95494.91;4211364;28;5746;-75
2022/09/29 13:38:06;;;;;;;;;;;;;;;16.77;62.03;95496.53;4185173;28;5635;-75
2022/09/29 13:40:19;;;;;;;;;;;;;;;16.75;61.84;95496.75;4203749;28;5627;-75
2022/09/29 13:42:40;;;;;;;;;;;;;;;16.76;61.96;95495.72;4216882;28;5850;-76
2022/09/29 13:45:33;;;;;;;;;;;;;;;16.77;61.68;95492.00;4209028;28;5826;-76
2022/09/29 13:47:45;;;;;;;;;;;;;;;16.77;61.74;95500.00;4197334;28;5712;-75
2022/09/29 13:49:48;;;;;;;;;;;;;;;16.79;61.81;95491.72;4204502;28;5750;-75
2022/09/29 13:51:52;;;;;;;;;;;;;;;16.80;61.86;95504.00;4209201;28;5092;-75
2022/09/29 13:54:32;;;;;;;;;;;;;;;16.79;61.73;95494.41;4210914;28;5776;-74
2022/09/29 13:56:35;;;;;;;;;;;;;;;16.81;61.62;95494.94;4177899;28;5662;-75
2022/09/29 13:59:01;;;;;;;;;;;;;;;16.80;61.58;95496.78;4195705;28;5608;-76
2022/09/29 14:01:07;;;;;;;;;;;;;;;16.83;61.43;95509.59;4218799;28;6303;-75
2022/09/29 14:03:27;;;;;;;;;;;;;;;16.82;61.49;95505.34;4203785;28;5647;-75
2022/09/29 14:05:52;;;;;;;;;;;;;;;16.85;61.25;95501.34;4215432;28;5726;-75
2022/09/29 14:08:15;;;;;;;;;;;;;;;16.86;61.38;95510.94;4218363;28;5688;-75
2022/09/29 14:10:24;;;;;;;;;;;;;;;16.87;61.28;95513.38;4185964;28;5650;-75
2022/09/29 14:12:28;;;;;;;;;;;;;;;16.86;61.18;95513.59;4192853;28;5608;-75
2022/09/29 14:14:36;;;;;;;;;;;;;;;16.85;61.52;95512.81;4219416;28;5618;-75
2022/09/29 14:16:47;;;;;;;;;;;;;;;16.88;61.05;95511.50;4219494;28;5613;-75
2022/09/29 14:18:55;;;;;;;;;;;;;;;16.91;61.10;95516.31;4218989;28;5617;-75
2022/09/29 14:21:02;;;;;;;;;;;;;;;16.92;60.91;95515.25;4219153;28;5629;-74
2022/09/29 14:23:09;;;;;;;;;;;;;;;16.96;60.96;95520.84;4204221;28;5723;-75
2022/09/29 14:25:30;;;;;;;;;;;;;;;16.95;60.80;95513.91;4187481;28;6685;-73
2022/09/29 14:27:34;;;;;;;;;;;;;;;16.96;60.76;95520.84;4195124;28;5715;-78
2022/09/29 14:29:43;;;;;;;;;;;;;;;16.99;60.81;95513.13;4197379;28;5658;-74
2022/09/29 14:31:50;;;;;;;;;;;;;;;17.01;60.64;95513.66;4201179;28;5660;-75
2022/09/29 14:33:53;;;;;;;;;;;;;;;17.01;60.46;95519.00;4185387;28;5678;-75
2022/09/29 14:36:04;;;;;;;;;;;;;;;16.98;60.59;95513.38;4193375;28;6816;-74
2022/09/29 14:38:15;;;;;;;;;;;;;;;17.00;60.38;95519.28;4201733;28;5605;-75
2022/09/29 14:40:30;;;;;;;;;;;;;;;17.02;60.38;95525.94;4211536;28;5613;-76
2022/09/29 14:42:34;;;;;;;;;;;;;;;17.03;60.39;95521.41;4202102;28;5738;-76
2022/09/29 14:52:58;;;;;;;;;;;;;;;16.99;60.01;95528.31;4163792;28;5700;-75
2022/09/29 14:55:10;;;;;;;;;;;;;;;16.99;60.06;95528.31;4168435;28;5771;-74
2022/09/29 14:57:33;;;;;;;;;;;;;;;16.99;59.90;95530.97;4164615;28;5693;-75
2022/09/29 14:59:52;;;;;;;;;;;;;;;16.95;59.78;95530.72;4173736;28;6614;-74
2022/09/29 15:02:15;;;;;;;;;;;;;;;16.96;59.82;95531.53;4181398;28;5670;-74
2022/09/29 15:04:18;;;;;;;;;;;;;;;16.99;59.83;95530.97;4166101;28;5681;-75
2022/09/29 15:06:24;;;;;;;;;;;;;;;17.00;59.71;95536.09;4150036;28;6264;-75
2022/09/29 15:08:30;;;;;;;;;;;;;;;17.01;59.70;95544.91;4167600;28;5832;-75
2022/09/29 15:10:40;;;;;;;;;;;;;;;17.03;59.42;95543.56;4171099;28;6550;-76
2022/09/29 15:12:50;;;;;;;;;;;;;;;17.01;59.20;95535.00;4161854;28;5764;-75
2022/09/29 15:14:56;;;;;;;;;;;;;;;17.01;59.33;95542.22;4169372;28;6454;-75
2022/09/29 15:17:13;;;;;;;;;;;;;;;17.00;59.23;95537.94;4151517;28;5692;-75
2022/09/29 15:19:29;;;;;;;;;;;;;;;16.97;59.15;95536.59;4173794;28;5678;-74
2022/09/29 15:21:40;;;;;;;;;;;;;;;16.96;59.16;95537.66;4173743;28;5864;-73
2022/09/29 15:24:08;;;;;;;;;;;;;;;16.97;59.07;95541.13;4168923;28;6058;-75
2022/09/29 15:26:13;;;;;;;;;;;;;;;16.96;58.98;95542.19;4191175;28;8552;-75
2022/09/29 15:28:21;;;;;;;;;;;;;;;16.96;58.88;95534.19;4187685;28;5694;-74
2022/09/29 15:30:27;;;;;;;;;;;;;;;16.98;58.97;95534.72;4190377;28;5815;-75
2022/09/29 15:32:31;;;;;;;;;;;;;;;16.97;58.81;95533.13;4192869;28;5931;-75
2022/09/29 15:34:39;;;;;;;;;;;;;;;16.97;58.74;95533.13;4198621;28;6397;-74
2022/09/29 15:36:43;;;;;;;;;;;;;;;16.95;58.78;95532.59;4198026;28;5650;-73
2022/09/29 15:38:46;;;;;;;;;;;;;;;16.98;58.55;95540.06;4195348;28;5658;-74
2022/09/29 15:40:54;;;;;;;;;;;;;;;16.99;58.40;95544.34;4185101;28;5646;-76
2022/09/29 15:42:56;;;;;;;;;;;;;;;16.96;58.36;95544.88;4186825;28;5836;-75
2022/09/29 15:45:01;;;;;;;;;;;;;;;16.96;58.42;95542.19;4187417;28;5659;-75
2022/09/29 15:47:06;;;;;;;;;;;;;;;16.96;58.29;95548.34;4187368;28;6317;-75
2022/09/29 15:49:17;;;;;;;;;;;;;;;16.96;58.14;95544.88;4195829;28;5654;-75
2022/09/29 15:51:20;;;;;;;;;;;;;;;16.95;58.18;95538.72;4190290;28;5768;-76
2022/09/29 15:53:23;;;;;;;;;;;;;;;16.95;58.04;95553.94;4197017;28;5636;-75
2022/09/29 15:55:27;;;;;;;;;;;;;;;16.96;58.00;95543.00;4187122;28;6755;-75
2022/09/29 15:57:43;;;;;;;;;;;;;;;16.98;58.05;95554.22;4192231;28;5701;-76
2022/09/29 15:59:51;;;;;;;;;;;;;;;16.98;58.05;95551.53;4193065;28;5883;-76
2022/09/29 16:02:03;;;;;;;;;;;;;;;16.98;57.94;95556.88;4188663;28;5632;-75
2022/09/29 16:04:08;;;;;;;;;;;;;;;16.99;58.00;95557.69;4194553;28;5636;-75
2022/09/29 16:06:21;;;;;;;;;;;;;;;16.98;57.89;95562.22;4188996;28;5764;-74
2022/09/29 16:08:27;;;;;;;;;;;;;;;16.98;57.77;95566.75;4189341;28;6165;-75
2022/09/29 16:10:33;;;;;;;;;;;;;;;16.98;57.88;95561.41;4195655;28;5844;-75
2022/09/29 16:12:40;;;;;;;;;;;;;;;16.96;57.87;95566.22;4190775;28;5717;-75
2022/09/29 16:14:43;;;;;;;;;;;;;;;16.96;57.82;95566.22;4188765;28;5772;-75
2022/09/29 16:16:54;;;;;;;;;;;;;;;16.93;57.82;95570.22;4193816;28;5654;-75
2022/09/29 16:19:02;;;;;;;;;;;;;;;16.92;57.97;95563.28;4204813;28;5636;-76
2022/09/29 16:21:09;;;;;;;;;;;;;;;16.91;57.93;95567.03;4188071;28;5658;-75
2022/09/29 16:23:20;;;;;;;;;;;;;;;16.90;57.93;95561.94;4191311;28;5689;-76
2022/09/29 16:25:27;;;;;;;;;;;;;;;16.91;58.10;95568.88;4187881;28;5601;-76
2022/09/29 16:27:53;;;;;;;;;;;;;;;16.88;57.92;95562.22;4186359;28;5085;-76
2022/09/29 16:30:17;;;;;;;;;;;;;;;16.86;57.95;95570.47;4184968;28;7712;-76
2022/09/29 16:32:37;;;;;;;;;;;;;;;16.85;58.01;95571.53;4196097;28;5789;-74
2022/09/29 16:34:44;;;;;;;;;;;;;;;16.85;57.90;95584.88;4171641;28;5740;-73
2022/09/29 16:36:50;;;;;;;;;;;;;;;16.83;57.93;95576.34;4192892;28;5711;-74